createdAt,value
2022-08-19T00:02:07.983Z,20.31
2022-08-19T00:06:10.910Z,20.33
2022-08-19T00:10:15.430Z,20.23
2022-08-19T00:14:18.397Z,20.24
2022-08-19T00:18:20.705Z,20.19
2022-08-19T00:22:23.103Z,20.15
2022-08-19T00:26:29.493Z,20.04
2022-08-19T00:30:31.825Z,19.94
2022-08-19T00:34:37.563Z,19.96
2022-08-19T00:38:44.054Z,20.00
2022-08-19T00:42:46.416Z,19.86
2022-08-19T00:46:55.177Z,19.92
2022-08-19T00:51:02.310Z,19.98
2022-08-19T00:55:11.227Z,19.91
2022-08-19T00:59:15.256Z,19.81
2022-08-19T01:03:55.151Z,19.67
2022-08-19T01:08:03.521Z,19.67
2022-08-19T01:12:12.391Z,19.67
2022-08-19T01:16:20.521Z,19.66
2022-08-19T01:20:24.692Z,19.52
2022-08-19T01:24:27.291Z,19.52
2022-08-19T01:28:39.837Z,19.55
2022-08-19T01:32:44.510Z,19.50
2022-08-19T01:36:48.639Z,19.36
2022-08-19T01:40:51.084Z,19.38
2022-08-19T01:44:53.532Z,19.38
2022-08-19T01:48:56.211Z,19.32
2022-08-19T01:53:06.335Z,19.21
2022-08-19T01:57:15.211Z,19.07
2022-08-19T02:01:18.005Z,19.27
2022-08-19T02:05:22.151Z,19.17
2022-08-19T02:09:24.285Z,19.09
2022-08-19T02:13:27.461Z,19.11
2022-08-19T02:17:30.919Z,19.05
2022-08-19T02:21:34.559Z,19.02
2022-08-19T02:25:37.155Z,19.04
2022-08-19T02:29:39.529Z,19.03
2022-08-19T02:33:42.163Z,19.06
2022-08-19T02:38:03.726Z,19.04
2022-08-19T02:42:06.983Z,18.98
2022-08-19T02:46:30.455Z,18.93
2022-08-19T02:50:33.353Z,18.84
2022-08-19T02:54:35.884Z,18.89
2022-08-19T02:58:38.144Z,18.79
2022-08-19T03:02:42.245Z,18.89
2022-08-19T03:06:48.325Z,18.93
2022-08-19T03:10:50.590Z,18.95
2022-08-19T03:14:53.976Z,19.01
2022-08-19T03:19:01.070Z,19.06
2022-08-19T03:23:03.239Z,19.18
2022-08-19T03:27:06.182Z,19.31
2022-08-19T03:31:42.005Z,19.42
2022-08-19T03:35:39.994Z,19.50
2022-08-19T03:39:43.411Z,19.55
2022-08-19T03:43:49.844Z,19.62
2022-08-19T03:47:51.942Z,19.69
2022-08-19T03:51:56.155Z,19.69
2022-08-19T03:56:00.755Z,19.72
2022-08-19T04:00:13.908Z,19.73
2022-08-19T04:04:16.166Z,19.77
2022-08-19T04:08:21.271Z,19.81
2022-08-19T04:12:23.446Z,19.85
2022-08-19T04:16:34.953Z,19.90
2022-08-19T04:20:46.300Z,20.04
2022-08-19T04:24:48.644Z,20.04
2022-08-19T04:28:52.728Z,20.25
2022-08-19T04:32:55.153Z,20.32
2022-08-19T04:36:59.777Z,20.43
2022-08-19T04:41:23.436Z,20.59
2022-08-19T04:45:25.716Z,20.76
2022-08-19T04:49:28.915Z,20.99
2022-08-19T04:53:37.918Z,21.27
2022-08-19T04:57:41.672Z,21.50
2022-08-19T05:01:44.902Z,21.80
2022-08-19T05:05:49.770Z,21.99
2022-08-19T05:09:57.862Z,22.11
2022-08-19T05:18:22.711Z,22.36
2022-08-19T05:22:35.723Z,22.52
2022-08-19T05:26:42.605Z,22.69
2022-08-19T05:30:47.551Z,22.84
2022-08-19T05:34:50.327Z,23.01
2022-08-19T05:38:54.389Z,23.20
2022-08-19T05:42:57.220Z,23.04
2022-08-19T05:47:01.210Z,23.05
2022-08-19T05:51:07.565Z,23.15
2022-08-19T05:55:10.517Z,23.40
2022-08-19T05:59:12.669Z,23.65
2022-08-19T06:03:15.145Z,23.96
2022-08-19T06:07:18.318Z,24.15
2022-08-19T06:11:25.128Z,24.34
2022-08-19T06:15:28.544Z,24.51
2022-08-19T06:19:32.266Z,24.46
2022-08-19T06:23:34.406Z,24.49
2022-08-19T06:27:42.002Z,24.44
2022-08-19T06:31:53.184Z,24.37
2022-08-19T06:35:55.458Z,24.27
2022-08-19T06:39:57.645Z,24.13
2022-08-19T06:43:59.950Z,24.43
2022-08-19T06:48:02.086Z,24.88
2022-08-19T06:52:06.279Z,25.19
2022-08-19T06:56:08.332Z,25.52
2022-08-19T07:00:17.124Z,25.66
2022-08-19T07:04:26.175Z,25.84
2022-08-19T07:08:29.282Z,25.70
2022-08-19T07:12:37.995Z,26.10
2022-08-19T07:16:43.021Z,26.14
2022-08-19T07:20:45.278Z,26.28
2022-08-19T07:24:51.264Z,26.39
2022-08-19T07:28:54.087Z,26.48
2022-08-19T07:32:57.860Z,26.78
2022-08-19T07:37:00.642Z,26.89
2022-08-19T07:41:02.948Z,27.01
2022-08-19T07:45:07.288Z,27.18
2022-08-19T07:49:14.503Z,27.21
2022-08-19T07:53:16.615Z,27.24
2022-08-19T07:57:20.120Z,27.50
2022-08-19T08:01:26.940Z,27.68
2022-08-19T08:05:48.156Z,27.76
2022-08-19T08:09:50.736Z,27.87
2022-08-19T08:14:01.221Z,28.03
2022-08-19T08:18:07.895Z,27.98
2022-08-19T08:22:36.366Z,27.96
2022-08-19T08:26:38.699Z,28.14
2022-08-19T08:30:50.757Z,28.11
2022-08-19T08:34:53.565Z,28.24
2022-08-19T08:43:10.874Z,28.15
2022-08-19T08:47:20.027Z,28.19
2022-08-19T08:51:30.871Z,28.07
2022-08-19T08:55:37.894Z,28.10
2022-08-19T08:59:42.896Z,28.41
2022-08-19T09:03:46.524Z,28.45
2022-08-19T09:08:27.804Z,28.53
2022-08-19T09:12:54.450Z,28.36
2022-08-19T09:16:59.288Z,28.41
2022-08-19T09:21:01.430Z,28.44
2022-08-19T09:25:04.470Z,28.61
2022-08-19T09:29:07.942Z,28.53
2022-08-19T09:33:10.378Z,28.78
2022-08-19T09:37:13.356Z,29.00
2022-08-19T09:41:22.750Z,29.06
2022-08-19T09:45:26.241Z,29.02
2022-08-19T09:49:28.298Z,29.48
2022-08-19T09:53:30.550Z,29.83
2022-08-19T09:57:34.196Z,29.84
2022-08-19T10:01:36.686Z,30.00
2022-08-19T10:05:54.645Z,30.47
2022-08-19T10:09:58.704Z,30.58
2022-08-19T10:14:01.719Z,30.67
2022-08-19T10:18:04.099Z,30.39
2022-08-19T10:22:12.198Z,30.55
2022-08-19T10:26:18.077Z,30.61
2022-08-19T10:30:21.739Z,31.13
2022-08-19T10:34:28.665Z,30.96
2022-08-19T10:38:32.413Z,31.04
2022-08-19T10:42:36.253Z,31.29
2022-08-19T10:46:46.055Z,31.42
2022-08-19T10:51:11.515Z,31.47
2022-08-19T10:55:51.774Z,31.49
2022-08-19T10:59:54.188Z,31.62
2022-08-19T11:03:58.419Z,31.55
2022-08-19T11:08:00.575Z,31.63
2022-08-19T11:12:05.224Z,31.60
2022-08-19T11:16:10.980Z,31.86
2022-08-19T11:20:15.364Z,31.71
2022-08-19T11:24:21.235Z,31.90
2022-08-19T11:28:23.226Z,32.00
2022-08-19T11:32:25.665Z,31.57
2022-08-19T11:36:28.534Z,31.77
2022-08-19T11:40:30.776Z,31.83
2022-08-19T11:44:32.850Z,31.96
2022-08-19T11:48:39.954Z,31.93
2022-08-19T11:52:42.110Z,32.21
2022-08-19T11:56:45.511Z,32.57
2022-08-19T12:00:47.682Z,32.29
2022-08-19T12:04:50.566Z,32.30
2022-08-19T12:08:53.040Z,32.21
2022-08-19T12:12:57.046Z,32.12
2022-08-19T12:17:01.291Z,32.28
2022-08-19T12:21:04.640Z,32.32
2022-08-19T12:25:07.290Z,32.20
2022-08-19T12:29:09.660Z,32.19
2022-08-19T12:33:12.150Z,32.49
2022-08-19T12:37:14.854Z,32.62
2022-08-19T12:41:19.418Z,32.66
2022-08-19T12:45:22.681Z,32.65
2022-08-19T12:49:43.583Z,32.72
2022-08-19T12:53:48.396Z,32.74
2022-08-19T12:57:51.598Z,32.71
2022-08-19T13:01:53.909Z,32.84
2022-08-19T13:05:58.075Z,32.95
2022-08-19T13:10:00.384Z,32.90
2022-08-19T13:14:04.074Z,32.66
2022-08-19T13:18:07.896Z,32.55
2022-08-19T13:22:14.931Z,32.68
2022-08-19T13:26:18.102Z,32.53
2022-08-19T13:30:39.721Z,32.72
2022-08-19T13:34:41.981Z,32.65
2022-08-19T13:38:45.926Z,32.37
2022-08-19T13:42:50.634Z,32.46
2022-08-19T13:46:55.065Z,32.41
2022-08-19T13:50:57.343Z,32.71
2022-08-19T13:54:59.775Z,32.61
2022-08-19T13:59:02.643Z,32.63
2022-08-19T14:03:09.147Z,32.56
2022-08-19T14:07:11.736Z,32.60
2022-08-19T14:11:14.111Z,32.38
2022-08-19T14:15:17.144Z,32.52
2022-08-19T14:19:20.625Z,32.51
2022-08-19T14:23:23.358Z,32.54
2022-08-19T14:27:26.579Z,32.64
2022-08-19T14:31:30.886Z,32.58
2022-08-19T14:35:35.687Z,32.55
2022-08-19T14:39:37.927Z,32.66
2022-08-19T14:43:40.385Z,32.72
2022-08-19T14:47:42.691Z,32.68
2022-08-19T14:51:48.090Z,32.55
2022-08-19T14:55:50.415Z,32.50
2022-08-19T14:59:52.554Z,32.33
2022-08-19T15:03:55.738Z,32.20
2022-08-19T15:07:58.105Z,32.07
2022-08-19T15:12:02.659Z,32.00
2022-08-19T15:16:05.323Z,31.70
2022-08-19T15:20:08.714Z,31.72
2022-08-19T15:24:10.967Z,31.67
2022-08-19T15:28:13.810Z,31.83
2022-08-19T15:32:16.101Z,32.01
2022-08-19T15:36:18.374Z,32.08
2022-08-19T15:40:22.151Z,32.47
2022-08-19T15:44:24.745Z,33.12
2022-08-19T15:48:26.838Z,33.40
2022-08-19T15:52:29.193Z,32.79
2022-08-19T15:57:06.894Z,33.20
2022-08-19T16:01:44.497Z,33.00
2022-08-19T16:06:05.367Z,32.47
2022-08-19T16:10:26.184Z,31.86
2022-08-19T16:14:33.019Z,31.58
2022-08-19T16:18:38.635Z,30.88
2022-08-19T16:22:41.010Z,30.52
2022-08-19T16:26:44.222Z,30.05
2022-08-19T16:30:48.803Z,30.09
2022-08-19T16:34:53.980Z,29.93
2022-08-19T16:38:56.260Z,29.75
2022-08-19T16:42:59.157Z,29.63
2022-08-19T16:47:01.336Z,29.43
2022-08-19T16:51:06.897Z,29.10
2022-08-19T16:55:09.103Z,28.98
2022-08-19T16:59:13.871Z,28.92
2022-08-19T17:03:19.937Z,28.77
2022-08-19T17:07:38.043Z,28.69
2022-08-19T17:11:40.056Z,28.56
2022-08-19T17:15:43.948Z,28.37
2022-08-19T17:19:47.785Z,28.28
2022-08-19T17:23:50.638Z,28.16
2022-08-19T17:27:53.644Z,27.98
2022-08-19T17:31:56.216Z,27.79
2022-08-19T17:35:58.244Z,27.64
2022-08-19T17:40:06.791Z,27.59
2022-08-19T17:44:09.507Z,27.49
2022-08-19T17:48:12.626Z,27.38
2022-08-19T17:52:14.802Z,27.26
2022-08-19T17:56:18.318Z,27.13
2022-08-19T18:00:22.115Z,27.01
2022-08-19T18:04:25.949Z,26.90
2022-08-19T18:08:28.918Z,26.86
2022-08-19T18:12:31.615Z,26.84
2022-08-19T18:16:33.923Z,26.77
2022-08-19T18:20:36.223Z,26.76
2022-08-19T18:24:40.835Z,26.56
2022-08-19T18:28:49.443Z,26.43
2022-08-19T18:32:54.106Z,26.33
2022-08-19T18:36:56.378Z,26.23
2022-08-19T18:41:18.221Z,26.11
2022-08-19T18:45:39.512Z,26.03
2022-08-19T18:49:46.098Z,26.01
2022-08-19T18:53:49.889Z,25.94
2022-08-19T18:57:51.997Z,25.76
2022-08-19T19:01:59.566Z,25.75
2022-08-19T19:06:01.934Z,25.62
2022-08-19T19:10:04.690Z,25.55
2022-08-19T19:14:23.225Z,25.35
2022-08-19T19:18:35.030Z,25.32
2022-08-19T19:22:37.206Z,25.31
2022-08-19T19:26:40.051Z,25.25
2022-08-19T19:30:42.232Z,25.14
2022-08-19T19:34:45.626Z,25.20
2022-08-19T19:38:48.858Z,25.16
2022-08-19T19:42:52.394Z,25.04
2022-08-19T19:46:55.989Z,24.91
2022-08-19T19:50:58.928Z,24.84
2022-08-19T19:55:04.749Z,24.80
2022-08-19T19:59:11.285Z,24.72
2022-08-19T20:03:20.550Z,24.75
2022-08-19T20:07:42.959Z,24.63
2022-08-19T20:11:57.699Z,24.69
2022-08-19T20:16:00.365Z,24.77
2022-08-19T20:20:02.602Z,24.82
2022-08-19T20:24:09.727Z,24.72
2022-08-19T20:28:12.718Z,24.71
2022-08-19T20:32:15.042Z,24.57
2022-08-19T20:36:17.424Z,24.54
2022-08-19T20:40:21.878Z,24.52
2022-08-19T20:44:25.580Z,24.52
2022-08-19T20:48:28.261Z,24.52
2022-08-19T20:52:30.456Z,24.52
2022-08-19T20:56:32.750Z,24.47
2022-08-19T21:00:34.953Z,24.35
2022-08-19T21:04:37.636Z,24.29
2022-08-19T21:08:40.475Z,24.18
2022-08-19T21:12:45.019Z,24.15
2022-08-19T21:16:47.223Z,24.07
2022-08-19T21:20:50.425Z,24.04
2022-08-19T21:24:52.665Z,24.01
2022-08-19T21:28:54.967Z,24.04
2022-08-19T21:33:01.225Z,23.96
2022-08-19T21:37:03.763Z,24.01
2022-08-19T21:41:07.467Z,23.92
2022-08-19T21:45:12.676Z,23.92
2022-08-19T21:49:14.862Z,23.92
2022-08-19T21:53:18.209Z,23.80
2022-08-19T21:57:20.377Z,23.79
2022-08-19T22:01:24.130Z,23.71
2022-08-19T22:05:26.485Z,23.65
2022-08-19T22:09:28.766Z,23.68
2022-08-19T22:13:39.995Z,23.69
2022-08-19T22:17:43.822Z,23.63
2022-08-19T22:21:45.803Z,23.56
2022-08-19T22:25:48.072Z,23.54
2022-08-19T22:29:52.602Z,23.55
2022-08-19T22:33:55.829Z,23.59
2022-08-19T22:37:59.119Z,23.61
2022-08-19T22:42:04.439Z,23.62
2022-08-19T22:46:15.069Z,23.61
2022-08-19T22:50:19.962Z,23.59
2022-08-19T22:54:22.109Z,23.62
2022-08-19T22:58:28.178Z,23.60
2022-08-19T23:02:38.563Z,23.54
2022-08-19T23:06:54.381Z,23.55
2022-08-19T23:10:56.846Z,23.50
2022-08-19T23:15:09.122Z,23.50
2022-08-19T23:19:12.415Z,23.50
2022-08-19T23:23:19.976Z,23.41
2022-08-19T23:27:40.882Z,23.42
2022-08-19T23:31:43.185Z,23.20
2022-08-19T23:35:45.385Z,23.15
2022-08-19T23:39:47.648Z,23.14
2022-08-19T23:43:51.432Z,23.05
2022-08-19T23:47:57.769Z,22.99
2022-08-19T23:52:00.100Z,22.87
2022-08-19T23:56:03.834Z,22.81
